Terminal Aerodrome Forecast
Issued by NWS

Home | Current Version | Previous Version | Text Only | Print | Product List | Glossary On
Versions: 1 2 3 4 5 6 7 8 9 10 11 12 13 14 15
000
FTUS42 KTAE 191100
TAFVLD
TAF
KVLD 191120Z 1912/2012 01010KT 6SM -DZ OVC007
      TEMPO 1912/1916 3SM RA BR BKN004
     FM200000 04007KT P6SM BKN007=

USA.gov is the U.S. government's official web portal to all federal, state and local government web resources and services.